sensor_id;sensor_type;location;lat;lon;timestamp;P1;durP1;ratioP1;P2;durP2;ratioP2
82637;SDS011;72318;36.628;-121.932;2023-12-28T00:01:40;2.42;;;0.57;;
82637;SDS011;72318;36.628;-121.932;2023-12-28T00:04:06;6.75;;;0.80;;
82637;SDS011;72318;36.628;-121.932;2023-12-28T00:06:33;2.17;;;0.65;;
82637;SDS011;72318;36.628;-121.932;2023-12-28T00:08:59;4.60;;;0.52;;
82637;SDS011;72318;36.628;-121.932;2023-12-28T00:11:28;3.90;;;0.30;;
82637;SDS011;72318;36.628;-121.932;2023-12-28T00:13:54;1.00;;;0.25;;
82637;SDS011;72318;36.628;-121.932;2023-12-28T00:16:20;3.75;;;0.45;;
82637;SDS011;72318;36.628;-121.932;2023-12-28T00:18:46;2.95;;;0.13;;
82637;SDS011;72318;36.628;-121.932;2023-12-28T00:21:13;6.40;;;0.50;;
82637;SDS011;72318;36.628;-121.932;2023-12-28T00:23:39;2.42;;;0.50;;
82637;SDS011;72318;36.628;-121.932;2023-12-28T00:26:05;1.10;;;0.25;;
82637;SDS011;72318;36.628;-121.932;2023-12-28T00:28:31;6.65;;;2.60;;
82637;SDS011;72318;36.628;-121.932;2023-12-28T00:30:58;6.95;;;0.93;;
82637;SDS011;72318;36.628;-121.932;2023-12-28T00:33:24;2.42;;;0.28;;
82637;SDS011;72318;36.628;-121.932;2023-12-28T00:35:50;2.40;;;0.28;;
82637;SDS011;72318;36.628;-121.932;2023-12-28T00:38:16;3.00;;;1.13;;
82637;SDS011;72318;36.628;-121.932;2023-12-28T00:40:42;5.35;;;0.32;;
82637;SDS011;72318;36.628;-121.932;2023-12-28T00:43:08;7.85;;;0.50;;
82637;SDS011;72318;36.628;-121.932;2023-12-28T00:45:35;3.42;;;0.55;;
82637;SDS011;72318;36.628;-121.932;2023-12-28T00:48:01;5.53;;;0.65;;
82637;SDS011;72318;36.628;-121.932;2023-12-28T00:50:27;4.20;;;0.85;;
82637;SDS011;72318;36.628;-121.932;2023-12-28T00:52:56;6.88;;;0.50;;
82637;SDS011;72318;36.628;-121.932;2023-12-28T00:55:23;5.50;;;1.08;;
82637;SDS011;72318;36.628;-121.932;2023-12-28T00:57:49;5.50;;;0.63;;
82637;SDS011;72318;36.628;-121.932;2023-12-28T01:00:15;7.13;;;0.63;;
82637;SDS011;72318;36.628;-121.932;2023-12-28T01:02:41;10.52;;;1.02;;
82637;SDS011;72318;36.628;-121.932;2023-12-28T01:05:08;8.25;;;1.65;;
82637;SDS011;72318;36.628;-121.932;2023-12-28T01:07:34;10.65;;;1.02;;
82637;SDS011;72318;36.628;-121.932;2023-12-28T01:10:00;8.85;;;1.05;;
82637;SDS011;72318;36.628;-121.932;2023-12-28T01:12:27;6.65;;;0.70;;
82637;SDS011;72318;36.628;-121.932;2023-12-28T01:14:53;9.73;;;0.77;;
82637;SDS011;72318;36.628;-121.932;2023-12-28T01:17:19;6.05;;;1.05;;
82637;SDS011;72318;36.628;-121.932;2023-12-28T01:19:45;3.45;;;0.85;;
82637;SDS011;72318;36.628;-121.932;2023-12-28T01:22:11;7.95;;;1.08;;
82637;SDS011;72318;36.628;-121.932;2023-12-28T01:24:38;2.85;;;0.57;;
82637;SDS011;72318;36.628;-121.932;2023-12-28T01:27:04;3.05;;;0.65;;
82637;SDS011;72318;36.628;-121.932;2023-12-28T01:29:30;2.35;;;0.63;;
82637;SDS011;72318;36.628;-121.932;2023-12-28T01:31:58;12.98;;;0.65;;
82637;SDS011;72318;36.628;-121.932;2023-12-28T01:34:24;7.47;;;0.57;;
82637;SDS011;72318;36.628;-121.932;2023-12-28T01:36:50;4.68;;;0.60;;
82637;SDS011;72318;36.628;-121.932;2023-12-28T01:39:16;4.05;;;0.57;;
82637;SDS011;72318;36.628;-121.932;2023-12-28T01:41:43;2.05;;;0.45;;
82637;SDS011;72318;36.628;-121.932;2023-12-28T01:44:14;7.25;;;1.00;;
82637;SDS011;72318;36.628;-121.932;2023-12-28T01:46:40;3.00;;;0.40;;
82637;SDS011;72318;36.628;-121.932;2023-12-28T01:49:06;10.15;;;0.90;;
82637;SDS011;72318;36.628;-121.932;2023-12-28T01:51:33;5.57;;;1.05;;
82637;SDS011;72318;36.628;-121.932;2023-12-28T01:54:00;4.82;;;1.05;;
82637;SDS011;72318;36.628;-121.932;2023-12-28T01:56:27;4.60;;;0.82;;
82637;SDS011;72318;36.628;-121.932;2023-12-28T01:58:53;4.97;;;1.42;;
82637;SDS011;72318;36.628;-121.932;2023-12-28T02:01:20;3.38;;;0.43;;
82637;SDS011;72318;36.628;-121.932;2023-12-28T02:03:46;6.38;;;0.30;;
82637;SDS011;72318;36.628;-121.932;2023-12-28T02:06:13;2.00;;;0.70;;
82637;SDS011;72318;36.628;-121.932;2023-12-28T02:08:44;8.02;;;0.82;;
82637;SDS011;72318;36.628;-121.932;2023-12-28T02:11:10;7.68;;;1.35;;
82637;SDS011;72318;36.628;-121.932;2023-12-28T02:13:36;6.45;;;1.35;;
82637;SDS011;72318;36.628;-121.932;2023-12-28T02:18:48;3.28;;;1.02;;
82637;SDS011;72318;36.628;-121.932;2023-12-28T02:21:16;3.45;;;0.85;;
82637;SDS011;72318;36.628;-121.932;2023-12-28T02:23:48;3.97;;;1.50;;
82637;SDS011;72318;36.628;-121.932;2023-12-28T02:26:15;5.55;;;1.08;;
82637;SDS011;72318;36.628;-121.932;2023-12-28T02:28:42;3.28;;;0.47;;
82637;SDS011;72318;36.628;-121.932;2023-12-28T02:31:10;3.50;;;1.55;;
82637;SDS011;72318;36.628;-121.932;2023-12-28T02:33:50;3.53;;;0.60;;
82637;SDS011;72318;36.628;-121.932;2023-12-28T02:36:23;2.40;;;1.20;;
82637;SDS011;72318;36.628;-121.932;2023-12-28T02:38:52;4.38;;;0.55;;
82637;SDS011;72318;36.628;-121.932;2023-12-28T02:41:20;5.15;;;0.60;;
82637;SDS011;72318;36.628;-121.932;2023-12-28T02:43:48;3.63;;;0.85;;
82637;SDS011;72318;36.628;-121.932;2023-12-28T02:46:14;7.07;;;1.15;;
82637;SDS011;72318;36.628;-121.932;2023-12-28T02:48:41;5.18;;;0.73;;
82637;SDS011;72318;36.628;-121.932;2023-12-28T02:51:08;7.30;;;1.27;;
82637;SDS011;72318;36.628;-121.932;2023-12-28T02:53:34;4.15;;;0.65;;
82637;SDS011;72318;36.628;-121.932;2023-12-28T02:56:00;4.32;;;0.88;;
82637;SDS011;72318;36.628;-121.932;2023-12-28T02:58:27;4.28;;;0.57;;
82637;SDS011;72318;36.628;-121.932;2023-12-28T03:00:54;5.18;;;0.85;;
82637;SDS011;72318;36.628;-121.932;2023-12-28T03:03:20;5.47;;;1.02;;
82637;SDS011;72318;36.628;-121.932;2023-12-28T03:05:46;7.25;;;1.55;;
82637;SDS011;72318;36.628;-121.932;2023-12-28T03:08:12;2.88;;;0.73;;
82637;SDS011;72318;36.628;-121.932;2023-12-28T03:10:39;4.57;;;0.57;;
82637;SDS011;72318;36.628;-121.932;2023-12-28T03:13:05;8.13;;;0.88;;
82637;SDS011;72318;36.628;-121.932;2023-12-28T03:15:33;7.18;;;0.55;;
82637;SDS011;72318;36.628;-121.932;2023-12-28T03:17:59;2.28;;;0.30;;
82637;SDS011;72318;36.628;-121.932;2023-12-28T03:20:25;4.00;;;0.38;;
82637;SDS011;72318;36.628;-121.932;2023-12-28T03:22:52;5.07;;;0.57;;
82637;SDS011;72318;36.628;-121.932;2023-12-28T03:25:18;1.48;;;0.25;;
82637;SDS011;72318;36.628;-121.932;2023-12-28T03:27:44;3.55;;;0.45;;
82637;SDS011;72318;36.628;-121.932;2023-12-28T03:30:10;1.13;;;0.20;;
82637;SDS011;72318;36.628;-121.932;2023-12-28T03:32:37;1.15;;;0.30;;
82637;SDS011;72318;36.628;-121.932;2023-12-28T03:35:03;1.27;;;0.32;;
82637;SDS011;72318;36.628;-121.932;2023-12-28T03:37:32;1.88;;;0.75;;
82637;SDS011;72318;36.628;-121.932;2023-12-28T03:39:58;1.40;;;0.20;;
82637;SDS011;72318;36.628;-121.932;2023-12-28T03:42:24;2.22;;;0.17;;
82637;SDS011;72318;36.628;-121.932;2023-12-28T03:44:50;2.08;;;0.77;;
82637;SDS011;72318;36.628;-121.932;2023-12-28T03:47:17;1.63;;;0.20;;
82637;SDS011;72318;36.628;-121.932;2023-12-28T03:49:43;1.60;;;0.30;;
82637;SDS011;72318;36.628;-121.932;2023-12-28T03:52:09;3.50;;;0.70;;
82637;SDS011;72318;36.628;-121.932;2023-12-28T03:54:35;3.08;;;0.50;;
82637;SDS011;72318;36.628;-121.932;2023-12-28T03:57:02;2.30;;;0.57;;
82637;SDS011;72318;36.628;-121.932;2023-12-28T03:59:28;4.65;;;1.10;;
82637;SDS011;72318;36.628;-121.932;2023-12-28T04:01:54;3.38;;;0.45;;
82637;SDS011;72318;36.628;-121.932;2023-12-28T04:04:20;6.63;;;0.88;;
82637;SDS011;72318;36.628;-121.932;2023-12-28T04:06:46;4.63;;;1.10;;
82637;SDS011;72318;36.628;-121.932;2023-12-28T04:09:13;3.47;;;0.52;;
82637;SDS011;72318;36.628;-121.932;2023-12-28T04:11:39;4.93;;;0.88;;
82637;SDS011;72318;36.628;-121.932;2023-12-28T04:14:05;4.57;;;0.98;;
82637;SDS011;72318;36.628;-121.932;2023-12-28T04:16:31;4.63;;;0.88;;
82637;SDS011;72318;36.628;-121.932;2023-12-28T04:18:57;2.22;;;0.50;;
82637;SDS011;72318;36.628;-121.932;2023-12-28T04:21:24;3.75;;;1.20;;
82637;SDS011;72318;36.628;-121.932;2023-12-28T04:23:50;2.42;;;0.70;;
82637;SDS011;72318;36.628;-121.932;2023-12-28T04:26:19;4.20;;;0.77;;
82637;SDS011;72318;36.628;-121.932;2023-12-28T04:28:48;4.22;;;1.05;;
82637;SDS011;72318;36.628;-121.932;2023-12-28T04:31:14;4.35;;;0.98;;
82637;SDS011;72318;36.628;-121.932;2023-12-28T04:33:40;4.80;;;3.50;;
82637;SDS011;72318;36.628;-121.932;2023-12-28T04:36:07;5.28;;;0.88;;
82637;SDS011;72318;36.628;-121.932;2023-12-28T04:38:33;1.90;;;0.73;;
82637;SDS011;72318;36.628;-121.932;2023-12-28T04:40:59;4.45;;;0.90;;
82637;SDS011;72318;36.628;-121.932;2023-12-28T04:43:26;2.28;;;0.50;;
82637;SDS011;72318;36.628;-121.932;2023-12-28T04:45:52;18.52;;;3.70;;
82637;SDS011;72318;36.628;-121.932;2023-12-28T04:48:18;14.00;;;2.38;;
82637;SDS011;72318;36.628;-121.932;2023-12-28T04:50:49;8.50;;;1.88;;
82637;SDS011;72318;36.628;-121.932;2023-12-28T04:53:15;8.23;;;1.45;;
82637;SDS011;72318;36.628;-121.932;2023-12-28T04:55:42;7.60;;;1.77;;
82637;SDS011;72318;36.628;-121.932;2023-12-28T04:58:09;13.18;;;2.78;;
82637;SDS011;72318;36.628;-121.932;2023-12-28T05:00:37;12.23;;;2.15;;
82637;SDS011;72318;36.628;-121.932;2023-12-28T05:03:03;9.02;;;1.83;;
82637;SDS011;72318;36.628;-121.932;2023-12-28T05:05:30;9.70;;;1.50;;
82637;SDS011;72318;36.628;-121.932;2023-12-28T05:07:56;13.95;;;1.73;;
82637;SDS011;72318;36.628;-121.932;2023-12-28T05:10:22;5.15;;;0.88;;
82637;SDS011;72318;36.628;-121.932;2023-12-28T05:12:48;5.22;;;0.73;;
82637;SDS011;72318;36.628;-121.932;2023-12-28T05:15:14;5.85;;;1.08;;
82637;SDS011;72318;36.628;-121.932;2023-12-28T05:17:42;6.28;;;0.98;;
82637;SDS011;72318;36.628;-121.932;2023-12-28T05:20:08;3.25;;;0.95;;
82637;SDS011;72318;36.628;-121.932;2023-12-28T05:22:35;3.05;;;0.50;;
82637;SDS011;72318;36.628;-121.932;2023-12-28T05:25:01;2.15;;;0.38;;
82637;SDS011;72318;36.628;-121.932;2023-12-28T05:27:27;3.28;;;0.60;;
82637;SDS011;72318;36.628;-121.932;2023-12-28T05:29:54;5.45;;;0.82;;
82637;SDS011;72318;36.628;-121.932;2023-12-28T05:32:20;2.35;;;0.52;;
82637;SDS011;72318;36.628;-121.932;2023-12-28T05:34:46;1.95;;;0.32;;
82637;SDS011;72318;36.628;-121.932;2023-12-28T05:37:14;5.75;;;0.30;;
82637;SDS011;72318;36.628;-121.932;2023-12-28T05:39:41;2.63;;;0.22;;
82637;SDS011;72318;36.628;-121.932;2023-12-28T05:42:07;4.25;;;0.60;;
82637;SDS011;72318;36.628;-121.932;2023-12-28T05:44:33;1.05;;;0.43;;
82637;SDS011;72318;36.628;-121.932;2023-12-28T05:46:59;2.30;;;0.40;;
82637;SDS011;72318;36.628;-121.932;2023-12-28T05:49:26;0.90;;;0.20;;
82637;SDS011;72318;36.628;-121.932;2023-12-28T05:51:53;3.75;;;0.55;;
82637;SDS011;72318;36.628;-121.932;2023-12-28T05:54:20;1.67;;;0.75;;
82637;SDS011;72318;36.628;-121.932;2023-12-28T05:56:46;1.70;;;0.60;;
82637;SDS011;72318;36.628;-121.932;2023-12-28T05:59:12;2.70;;;0.52;;
82637;SDS011;72318;36.628;-121.932;2023-12-28T06:01:42;2.35;;;0.70;;
82637;SDS011;72318;36.628;-121.932;2023-12-28T06:04:09;3.17;;;0.28;;
82637;SDS011;72318;36.628;-121.932;2023-12-28T06:06:35;6.85;;;0.77;;
82637;SDS011;72318;36.628;-121.932;2023-12-28T06:09:01;3.88;;;1.70;;
82637;SDS011;72318;36.628;-121.932;2023-12-28T06:11:31;6.38;;;0.73;;
82637;SDS011;72318;36.628;-121.932;2023-12-28T06:13:57;8.30;;;1.40;;
82637;SDS011;72318;36.628;-121.932;2023-12-28T06:16:23;5.05;;;1.33;;
82637;SDS011;72318;36.628;-121.932;2023-12-28T06:18:50;5.35;;;1.10;;
82637;SDS011;72318;36.628;-121.932;2023-12-28T06:21:17;6.05;;;1.23;;
82637;SDS011;72318;36.628;-121.932;2023-12-28T06:23:43;3.45;;;1.00;;
82637;SDS011;72318;36.628;-121.932;2023-12-28T06:26:09;10.73;;;3.00;;
82637;SDS011;72318;36.628;-121.932;2023-12-28T06:28:35;12.70;;;2.80;;
82637;SDS011;72318;36.628;-121.932;2023-12-28T06:31:01;8.35;;;2.47;;
82637;SDS011;72318;36.628;-121.932;2023-12-28T06:33:29;4.50;;;1.83;;
82637;SDS011;72318;36.628;-121.932;2023-12-28T06:35:56;4.82;;;1.80;;
82637;SDS011;72318;36.628;-121.932;2023-12-28T06:38:25;5.72;;;0.88;;
82637;SDS011;72318;36.628;-121.932;2023-12-28T06:40:51;12.18;;;2.15;;
82637;SDS011;72318;36.628;-121.932;2023-12-28T06:43:17;7.20;;;2.15;;
82637;SDS011;72318;36.628;-121.932;2023-12-28T06:45:43;6.10;;;1.70;;
82637;SDS011;72318;36.628;-121.932;2023-12-28T06:48:10;6.47;;;1.25;;
82637;SDS011;72318;36.628;-121.932;2023-12-28T06:50:36;7.60;;;1.48;;
82637;SDS011;72318;36.628;-121.932;2023-12-28T06:53:02;4.10;;;1.40;;
82637;SDS011;72318;36.628;-121.932;2023-12-28T06:55:28;8.60;;;1.80;;
82637;SDS011;72318;36.628;-121.932;2023-12-28T06:57:54;4.57;;;1.45;;
82637;SDS011;72318;36.628;-121.932;2023-12-28T07:00:21;6.72;;;1.10;;
82637;SDS011;72318;36.628;-121.932;2023-12-28T07:02:47;4.60;;;1.50;;
82637;SDS011;72318;36.628;-121.932;2023-12-28T07:05:13;8.30;;;1.98;;
82637;SDS011;72318;36.628;-121.932;2023-12-28T07:07:39;5.75;;;1.52;;
82637;SDS011;72318;36.628;-121.932;2023-12-28T07:10:06;4.45;;;1.30;;
82637;SDS011;72318;36.628;-121.932;2023-12-28T07:12:32;5.30;;;0.77;;
82637;SDS011;72318;36.628;-121.932;2023-12-28T07:14:58;8.02;;;0.68;;
82637;SDS011;72318;36.628;-121.932;2023-12-28T07:17:25;4.82;;;0.70;;
82637;SDS011;72318;36.628;-121.932;2023-12-28T07:19:51;2.15;;;0.60;;
82637;SDS011;72318;36.628;-121.932;2023-12-28T07:22:17;2.70;;;0.80;;
82637;SDS011;72318;36.628;-121.932;2023-12-28T07:24:43;6.65;;;0.55;;
82637;SDS011;72318;36.628;-121.932;2023-12-28T07:27:09;2.78;;;0.63;;
82637;SDS011;72318;36.628;-121.932;2023-12-28T07:29:36;8.35;;;1.10;;
82637;SDS011;72318;36.628;-121.932;2023-12-28T07:32:02;3.08;;;0.63;;
82637;SDS011;72318;36.628;-121.932;2023-12-28T07:34:29;5.30;;;0.80;;
82637;SDS011;72318;36.628;-121.932;2023-12-28T07:36:55;1.67;;;0.57;;
82637;SDS011;72318;36.628;-121.932;2023-12-28T07:39:21;3.75;;;0.82;;
82637;SDS011;72318;36.628;-121.932;2023-12-28T07:41:47;1.83;;;0.32;;
82637;SDS011;72318;36.628;-121.932;2023-12-28T07:44:15;3.75;;;0.90;;
82637;SDS011;72318;36.628;-121.932;2023-12-28T07:46:42;1.92;;;0.45;;
82637;SDS011;72318;36.628;-121.932;2023-12-28T07:49:08;1.52;;;0.32;;
82637;SDS011;72318;36.628;-121.932;2023-12-28T07:51:34;1.85;;;0.40;;
82637;SDS011;72318;36.628;-121.932;2023-12-28T07:54:01;11.43;;;0.75;;
82637;SDS011;72318;36.628;-121.932;2023-12-28T07:56:27;6.35;;;1.38;;
82637;SDS011;72318;36.628;-121.932;2023-12-28T07:58:53;2.08;;;0.55;;
82637;SDS011;72318;36.628;-121.932;2023-12-28T08:01:19;2.95;;;0.80;;
82637;SDS011;72318;36.628;-121.932;2023-12-28T08:03:47;3.33;;;0.85;;
82637;SDS011;72318;36.628;-121.932;2023-12-28T08:06:13;3.60;;;1.17;;
82637;SDS011;72318;36.628;-121.932;2023-12-28T08:08:40;5.05;;;1.52;;
82637;SDS011;72318;36.628;-121.932;2023-12-28T08:11:06;2.05;;;0.50;;
82637;SDS011;72318;36.628;-121.932;2023-12-28T08:13:32;7.57;;;0.90;;
82637;SDS011;72318;36.628;-121.932;2023-12-28T08:15:58;6.43;;;0.70;;
82637;SDS011;72318;36.628;-121.932;2023-12-28T08:18:24;6.50;;;1.00;;
82637;SDS011;72318;36.628;-121.932;2023-12-28T08:20:51;5.20;;;1.38;;
82637;SDS011;72318;36.628;-121.932;2023-12-28T08:23:17;4.63;;;1.10;;
82637;SDS011;72318;36.628;-121.932;2023-12-28T08:25:43;2.33;;;0.82;;
82637;SDS011;72318;36.628;-121.932;2023-12-28T08:28:10;9.15;;;0.95;;
82637;SDS011;72318;36.628;-121.932;2023-12-28T08:30:36;2.47;;;0.57;;
82637;SDS011;72318;36.628;-121.932;2023-12-28T08:33:02;4.10;;;0.50;;
82637;SDS011;72318;36.628;-121.932;2023-12-28T08:35:29;1.55;;;0.70;;
82637;SDS011;72318;36.628;-121.932;2023-12-28T08:37:55;2.22;;;0.28;;
82637;SDS011;72318;36.628;-121.932;2023-12-28T08:40:21;1.38;;;0.52;;
82637;SDS011;72318;36.628;-121.932;2023-12-28T08:42:48;3.42;;;0.73;;
82637;SDS011;72318;36.628;-121.932;2023-12-28T08:45:14;2.00;;;0.20;;
82637;SDS011;72318;36.628;-121.932;2023-12-28T08:47:40;8.23;;;0.30;;
82637;SDS011;72318;36.628;-121.932;2023-12-28T08:50:06;2.30;;;0.40;;
82637;SDS011;72318;36.628;-121.932;2023-12-28T08:52:33;2.28;;;0.73;;
82637;SDS011;72318;36.628;-121.932;2023-12-28T08:54:59;1.27;;;0.20;;
82637;SDS011;72318;36.628;-121.932;2023-12-28T08:57:26;2.75;;;0.30;;
82637;SDS011;72318;36.628;-121.932;2023-12-28T08:59:53;1.27;;;0.30;;
82637;SDS011;72318;36.628;-121.932;2023-12-28T09:02:19;2.78;;;0.22;;
82637;SDS011;72318;36.628;-121.932;2023-12-28T09:04:46;1.10;;;0.38;;
82637;SDS011;72318;36.628;-121.932;2023-12-28T09:07:12;2.05;;;0.50;;
82637;SDS011;72318;36.628;-121.932;2023-12-28T09:09:38;1.35;;;0.52;;
82637;SDS011;72318;36.628;-121.932;2023-12-28T09:12:05;3.60;;;0.65;;
82637;SDS011;72318;36.628;-121.932;2023-12-28T09:14:31;1.35;;;0.22;;
82637;SDS011;72318;36.628;-121.932;2023-12-28T09:16:58;2.17;;;0.22;;
82637;SDS011;72318;36.628;-121.932;2023-12-28T09:19:24;0.82;;;0.73;;
82637;SDS011;72318;36.628;-121.932;2023-12-28T09:21:50;0.85;;;0.35;;
82637;SDS011;72318;36.628;-121.932;2023-12-28T09:24:16;2.33;;;0.40;;
82637;SDS011;72318;36.628;-121.932;2023-12-28T09:26:44;3.97;;;0.32;;
82637;SDS011;72318;36.628;-121.932;2023-12-28T09:29:10;2.13;;;0.30;;
82637;SDS011;72318;36.628;-121.932;2023-12-28T09:31:37;1.67;;;0.30;;
82637;SDS011;72318;36.628;-121.932;2023-12-28T09:34:05;1.33;;;0.28;;
82637;SDS011;72318;36.628;-121.932;2023-12-28T09:36:31;0.50;;;0.20;;
82637;SDS011;72318;36.628;-121.932;2023-12-28T09:38:57;2.10;;;0.28;;
82637;SDS011;72318;36.628;-121.932;2023-12-28T09:41:25;4.03;;;0.52;;
82637;SDS011;72318;36.628;-121.932;2023-12-28T09:46:24;2.40;;;0.25;;
82637;SDS011;72318;36.628;-121.932;2023-12-28T09:48:52;8.27;;;0.68;;
82637;SDS011;72318;36.628;-121.932;2023-12-28T09:51:19;9.23;;;1.13;;
82637;SDS011;72318;36.628;-121.932;2023-12-28T09:53:45;27.10;;;4.75;;
82637;SDS011;72318;36.628;-121.932;2023-12-28T09:56:12;14.30;;;3.58;;
82637;SDS011;72318;36.628;-121.932;2023-12-28T09:58:42;21.33;;;4.10;;
82637;SDS011;72318;36.628;-121.932;2023-12-28T10:01:09;42.03;;;5.80;;
82637;SDS011;72318;36.628;-121.932;2023-12-28T10:03:36;47.85;;;7.82;;
82637;SDS011;72318;36.628;-121.932;2023-12-28T10:06:02;68.30;;;12.18;;
82637;SDS011;72318;36.628;-121.932;2023-12-28T10:08:29;75.93;;;14.55;;
82637;SDS011;72318;36.628;-121.932;2023-12-28T10:10:55;69.90;;;14.18;;
82637;SDS011;72318;36.628;-121.932;2023-12-28T10:13:24;65.72;;;14.27;;
82637;SDS011;72318;36.628;-121.932;2023-12-28T10:15:51;56.28;;;12.43;;
82637;SDS011;72318;36.628;-121.932;2023-12-28T10:18:18;65.38;;;13.60;;
82637;SDS011;72318;36.628;-121.932;2023-12-28T10:20:50;45.65;;;10.02;;
82637;SDS011;72318;36.628;-121.932;2023-12-28T10:23:17;60.45;;;12.73;;
82637;SDS011;72318;36.628;-121.932;2023-12-28T10:25:47;74.60;;;11.15;;
82637;SDS011;72318;36.628;-121.932;2023-12-28T10:28:15;55.28;;;11.27;;
82637;SDS011;72318;36.628;-121.932;2023-12-28T10:30:44;58.47;;;12.38;;
82637;SDS011;72318;36.628;-121.932;2023-12-28T10:33:10;56.65;;;12.40;;
82637;SDS011;72318;36.628;-121.932;2023-12-28T10:35:36;73.15;;;14.10;;
82637;SDS011;72318;36.628;-121.932;2023-12-28T10:38:03;57.40;;;9.48;;
82637;SDS011;72318;36.628;-121.932;2023-12-28T10:40:32;58.67;;;11.05;;
82637;SDS011;72318;36.628;-121.932;2023-12-28T10:43:05;65.50;;;10.25;;
82637;SDS011;72318;36.628;-121.932;2023-12-28T10:45:32;53.50;;;10.98;;
82637;SDS011;72318;36.628;-121.932;2023-12-28T10:48:07;36.47;;;9.85;;
82637;SDS011;72318;36.628;-121.932;2023-12-28T10:50:39;32.45;;;8.07;;
82637;SDS011;72318;36.628;-121.932;2023-12-28T10:58:52;13.90;;;2.78;;
82637;SDS011;72318;36.628;-121.932;2023-12-28T11:01:48;11.23;;;1.75;;
82637;SDS011;72318;36.628;-121.932;2023-12-28T11:07:15;17.17;;;2.63;;
82637;SDS011;72318;36.628;-121.932;2023-12-28T11:09:44;14.23;;;1.92;;
82637;SDS011;72318;36.628;-121.932;2023-12-28T11:12:11;11.50;;;1.90;;
82637;SDS011;72318;36.628;-121.932;2023-12-28T11:14:40;17.60;;;2.80;;
82637;SDS011;72318;36.628;-121.932;2023-12-28T11:19:36;21.75;;;3.20;;
82637;SDS011;72318;36.628;-121.932;2023-12-28T11:22:04;36.42;;;4.82;;
82637;SDS011;72318;36.628;-121.932;2023-12-28T11:24:32;28.05;;;5.85;;
82637;SDS011;72318;36.628;-121.932;2023-12-28T11:27:00;30.80;;;5.38;;
82637;SDS011;72318;36.628;-121.932;2023-12-28T11:29:28;37.50;;;5.10;;
82637;SDS011;72318;36.628;-121.932;2023-12-28T11:31:58;38.40;;;8.07;;
82637;SDS011;72318;36.628;-121.932;2023-12-28T11:34:28;30.88;;;6.53;;
82637;SDS011;72318;36.628;-121.932;2023-12-28T11:36:57;35.63;;;6.10;;
82637;SDS011;72318;36.628;-121.932;2023-12-28T11:39:32;27.55;;;5.60;;
82637;SDS011;72318;36.628;-121.932;2023-12-28T11:42:03;27.85;;;6.13;;
82637;SDS011;72318;36.628;-121.932;2023-12-28T11:44:31;33.97;;;5.65;;
82637;SDS011;72318;36.628;-121.932;2023-12-28T11:47:15;22.10;;;5.45;;
82637;SDS011;72318;36.628;-121.932;2023-12-28T11:49:43;32.88;;;5.38;;
82637;SDS011;72318;36.628;-121.932;2023-12-28T11:52:24;26.73;;;5.90;;
82637;SDS011;72318;36.628;-121.932;2023-12-28T11:54:54;30.90;;;5.13;;
82637;SDS011;72318;36.628;-121.932;2023-12-28T11:57:21;38.65;;;5.35;;
82637;SDS011;72318;36.628;-121.932;2023-12-28T11:59:52;30.95;;;6.63;;
82637;SDS011;72318;36.628;-121.932;2023-12-28T12:02:20;20.05;;;3.70;;
82637;SDS011;72318;36.628;-121.932;2023-12-28T12:04:47;24.30;;;3.97;;
82637;SDS011;72318;36.628;-121.932;2023-12-28T12:07:13;24.40;;;5.15;;
82637;SDS011;72318;36.628;-121.932;2023-12-28T12:09:39;14.63;;;3.38;;
82637;SDS011;72318;36.628;-121.932;2023-12-28T12:12:06;22.75;;;2.92;;
82637;SDS011;72318;36.628;-121.932;2023-12-28T12:14:33;20.40;;;3.60;;
82637;SDS011;72318;36.628;-121.932;2023-12-28T12:17:00;21.25;;;2.80;;
82637;SDS011;72318;36.628;-121.932;2023-12-28T12:19:27;20.90;;;4.13;;
82637;SDS011;72318;36.628;-121.932;2023-12-28T12:21:54;28.25;;;5.20;;
82637;SDS011;72318;36.628;-121.932;2023-12-28T12:24:21;34.10;;;7.38;;
82637;SDS011;72318;36.628;-121.932;2023-12-28T12:26:51;51.03;;;9.38;;
82637;SDS011;72318;36.628;-121.932;2023-12-28T12:29:18;46.70;;;9.57;;
82637;SDS011;72318;36.628;-121.932;2023-12-28T12:31:46;73.10;;;10.82;;
82637;SDS011;72318;36.628;-121.932;2023-12-28T12:34:17;59.03;;;12.00;;
82637;SDS011;72318;36.628;-121.932;2023-12-28T12:36:43;56.40;;;9.77;;
82637;SDS011;72318;36.628;-121.932;2023-12-28T12:39:10;54.25;;;10.18;;
82637;SDS011;72318;36.628;-121.932;2023-12-28T12:41:37;48.17;;;9.25;;
82637;SDS011;72318;36.628;-121.932;2023-12-28T12:44:04;56.72;;;10.65;;
82637;SDS011;72318;36.628;-121.932;2023-12-28T12:46:30;78.20;;;14.60;;
82637;SDS011;72318;36.628;-121.932;2023-12-28T12:48:57;73.30;;;14.32;;
82637;SDS011;72318;36.628;-121.932;2023-12-28T12:51:25;73.28;;;13.98;;
82637;SDS011;72318;36.628;-121.932;2023-12-28T12:54:01;69.68;;;12.57;;
82637;SDS011;72318;36.628;-121.932;2023-12-28T12:56:29;66.13;;;12.88;;
82637;SDS011;72318;36.628;-121.932;2023-12-28T12:58:55;67.65;;;12.40;;
82637;SDS011;72318;36.628;-121.932;2023-12-28T13:01:22;75.43;;;13.38;;
82637;SDS011;72318;36.628;-121.932;2023-12-28T13:03:52;61.55;;;11.55;;
82637;SDS011;72318;36.628;-121.932;2023-12-28T13:06:18;59.35;;;12.25;;
82637;SDS011;72318;36.628;-121.932;2023-12-28T13:08:48;62.22;;;12.45;;
82637;SDS011;72318;36.628;-121.932;2023-12-28T13:11:14;64.80;;;12.10;;
82637;SDS011;72318;36.628;-121.932;2023-12-28T13:13:41;47.10;;;9.70;;
82637;SDS011;72318;36.628;-121.932;2023-12-28T13:16:07;35.85;;;9.00;;
82637;SDS011;72318;36.628;-121.932;2023-12-28T13:18:33;51.90;;;8.55;;
82637;SDS011;72318;36.628;-121.932;2023-12-28T13:21:00;46.25;;;7.93;;
82637;SDS011;72318;36.628;-121.932;2023-12-28T13:23:27;40.00;;;6.72;;
82637;SDS011;72318;36.628;-121.932;2023-12-28T13:25:54;38.13;;;5.30;;
82637;SDS011;72318;36.628;-121.932;2023-12-28T13:28:20;37.15;;;6.05;;
82637;SDS011;72318;36.628;-121.932;2023-12-28T13:30:48;20.85;;;5.25;;
82637;SDS011;72318;36.628;-121.932;2023-12-28T13:33:16;30.02;;;5.53;;
82637;SDS011;72318;36.628;-121.932;2023-12-28T13:35:43;22.02;;;4.63;;
82637;SDS011;72318;36.628;-121.932;2023-12-28T13:38:09;23.15;;;3.13;;
82637;SDS011;72318;36.628;-121.932;2023-12-28T13:40:35;15.25;;;2.72;;
82637;SDS011;72318;36.628;-121.932;2023-12-28T13:43:02;16.38;;;3.05;;
82637;SDS011;72318;36.628;-121.932;2023-12-28T13:45:28;18.65;;;3.35;;
82637;SDS011;72318;36.628;-121.932;2023-12-28T13:47:54;9.45;;;1.90;;
82637;SDS011;72318;36.628;-121.932;2023-12-28T13:50:20;5.95;;;1.52;;
82637;SDS011;72318;36.628;-121.932;2023-12-28T13:52:47;9.77;;;1.73;;
82637;SDS011;72318;36.628;-121.932;2023-12-28T13:55:13;13.63;;;1.45;;
82637;SDS011;72318;36.628;-121.932;2023-12-28T13:57:39;11.80;;;1.23;;
82637;SDS011;72318;36.628;-121.932;2023-12-28T14:00:06;9.70;;;0.80;;
82637;SDS011;72318;36.628;-121.932;2023-12-28T14:02:32;7.10;;;1.15;;
82637;SDS011;72318;36.628;-121.932;2023-12-28T14:04:59;11.35;;;1.98;;
82637;SDS011;72318;36.628;-121.932;2023-12-28T14:07:25;8.48;;;1.00;;
82637;SDS011;72318;36.628;-121.932;2023-12-28T14:09:52;5.43;;;1.05;;
82637;SDS011;72318;36.628;-121.932;2023-12-28T14:12:18;7.32;;;1.00;;
82637;SDS011;72318;36.628;-121.932;2023-12-28T14:14:44;6.03;;;0.70;;
82637;SDS011;72318;36.628;-121.932;2023-12-28T14:17:10;6.55;;;0.68;;
82637;SDS011;72318;36.628;-121.932;2023-12-28T14:19:36;7.43;;;1.58;;